sensor_id;sensor_type;location;lat;lon;timestamp;pressure;altitude;pressure_sealevel;temperature;humidity
19795;BME280;10057;59.402;17.866;2022-07-23T00:00:36;100898.47;;;18.80;70.08
19795;BME280;10057;59.402;17.866;2022-07-23T00:03:05;100900.50;;;18.76;70.11
19795;BME280;10057;59.402;17.866;2022-07-23T00:05:32;100897.09;;;18.74;70.29
19795;BME280;10057;59.402;17.866;2022-07-23T00:08:02;100896.41;;;18.70;70.18
19795;BME280;10057;59.402;17.866;2022-07-23T00:10:28;100897.75;;;18.51;70.50
19795;BME280;10057;59.402;17.866;2022-07-23T00:12:55;100901.06;;;18.41;70.80
19795;BME280;10057;59.402;17.866;2022-07-23T00:15:22;100904.72;;;18.40;71.07
19795;BME280;10057;59.402;17.866;2022-07-23T00:17:49;100902.03;;;18.40;71.08
19795;BME280;10057;59.402;17.866;2022-07-23T00:20:16;100907.59;;;18.37;71.02
19795;BME280;10057;59.402;17.866;2022-07-23T00:22:50;100900.06;;;18.30;71.32
19795;BME280;10057;59.402;17.866;2022-07-23T00:25:18;100897.69;;;18.25;71.22
19795;BME280;10057;59.402;17.866;2022-07-23T00:27:56;100903.16;;;18.23;71.34
19795;BME280;10057;59.402;17.866;2022-07-23T00:30:23;100900.69;;;18.20;71.56
19795;BME280;10057;59.402;17.866;2022-07-23T00:32:53;100894.47;;;18.20;71.39
19795;BME280;10057;59.402;17.866;2022-07-23T00:35:23;100904.63;;;18.15;71.40
19795;BME280;10057;59.402;17.866;2022-07-23T00:37:50;100909.50;;;17.95;71.72
19795;BME280;10057;59.402;17.866;2022-07-23T00:40:17;100914.50;;;17.87;72.05
19795;BME280;10057;59.402;17.866;2022-07-23T00:42:43;100910.28;;;17.83;72.08
19795;BME280;10057;59.402;17.866;2022-07-23T00:45:10;100905.13;;;17.80;72.63
19795;BME280;10057;59.402;17.866;2022-07-23T00:47:37;100903.41;;;17.79;72.46
19795;BME280;10057;59.402;17.866;2022-07-23T00:50:05;100901.19;;;17.71;72.58
19795;BME280;10057;59.402;17.866;2022-07-23T00:52:34;100907.53;;;17.56;73.06
19795;BME280;10057;59.402;17.866;2022-07-23T00:55:01;100904.38;;;17.49;73.49
19795;BME280;10057;59.402;17.866;2022-07-23T00:57:28;100903.50;;;17.49;73.49
19795;BME280;10057;59.402;17.866;2022-07-23T00:59:55;100903.63;;;17.47;73.61
19795;BME280;10057;59.402;17.866;2022-07-23T01:02:22;100905.34;;;17.48;73.55
19795;BME280;10057;59.402;17.866;2022-07-23T01:04:49;100912.41;;;17.49;73.49
19795;BME280;10057;59.402;17.866;2022-07-23T01:07:16;100909.06;;;17.46;73.53
19795;BME280;10057;59.402;17.866;2022-07-23T01:09:44;100902.84;;;17.45;73.60
19795;BME280;10057;59.402;17.866;2022-07-23T01:12:14;100907.34;;;17.45;73.55
19795;BME280;10057;59.402;17.866;2022-07-23T01:14:41;100907.25;;;17.46;73.64
19795;BME280;10057;59.402;17.866;2022-07-23T01:17:11;100905.53;;;17.45;73.75
19795;BME280;10057;59.402;17.866;2022-07-23T01:19:41;100897.47;;;17.45;73.88
19795;BME280;10057;59.402;17.866;2022-07-23T01:22:12;100907.25;;;17.46;73.72
19795;BME280;10057;59.402;17.866;2022-07-23T01:24:38;100900.84;;;17.35;73.30
19795;BME280;10057;59.402;17.866;2022-07-23T01:27:05;100903.91;;;17.00;73.74
19795;BME280;10057;59.402;17.866;2022-07-23T01:29:32;100901.41;;;16.67;74.61
19795;BME280;10057;59.402;17.866;2022-07-23T01:32:01;100896.78;;;16.54;75.25
19795;BME280;10057;59.402;17.866;2022-07-23T01:34:28;100901.06;;;16.43;75.36
19795;BME280;10057;59.402;17.866;2022-07-23T01:36:58;100897.84;;;16.22;75.90
19795;BME280;10057;59.402;17.866;2022-07-23T01:39:28;100905.00;;;16.05;76.53
19795;BME280;10057;59.402;17.866;2022-07-23T01:41:54;100911.66;;;15.98;76.75
19795;BME280;10057;59.402;17.866;2022-07-23T01:44:21;100911.84;;;15.95;77.09
19795;BME280;10057;59.402;17.866;2022-07-23T01:46:48;100905.28;;;16.01;77.07
19795;BME280;10057;59.402;17.866;2022-07-23T01:49:15;100906.47;;;16.11;76.84
19795;BME280;10057;59.402;17.866;2022-07-23T01:51:42;100902.84;;;16.12;76.38
19795;BME280;10057;59.402;17.866;2022-07-23T01:54:31;100889.59;;;15.95;76.62
19795;BME280;10057;59.402;17.866;2022-07-23T01:56:59;100900.44;;;15.92;76.96
19795;BME280;10057;59.402;17.866;2022-07-23T01:59:27;100888.63;;;15.96;76.87
19795;BME280;10057;59.402;17.866;2022-07-23T02:01:54;100895.28;;;16.04;76.92
19795;BME280;10057;59.402;17.866;2022-07-23T02:04:22;100888.34;;;16.16;76.58
19795;BME280;10057;59.402;17.866;2022-07-23T02:06:49;100887.03;;;16.23;76.11
19795;BME280;10057;59.402;17.866;2022-07-23T02:09:16;100883.09;;;16.15;75.97
19795;BME280;10057;59.402;17.866;2022-07-23T02:11:43;100887.25;;;16.04;76.20
19795;BME280;10057;59.402;17.866;2022-07-23T02:14:10;100883.72;;;16.04;76.42
19795;BME280;10057;59.402;17.866;2022-07-23T02:16:37;100879.91;;;16.08;76.42
19795;BME280;10057;59.402;17.866;2022-07-23T02:19:04;100882.28;;;16.13;76.23
19795;BME280;10057;59.402;17.866;2022-07-23T02:21:31;100891.47;;;16.08;76.28
19795;BME280;10057;59.402;17.866;2022-07-23T02:23:57;100880.47;;;16.13;76.28
19795;BME280;10057;59.402;17.866;2022-07-23T02:26:24;100879.28;;;16.19;76.26
19795;BME280;10057;59.402;17.866;2022-07-23T02:28:51;100877.16;;;16.24;75.88
19795;BME280;10057;59.402;17.866;2022-07-23T02:31:20;100870.03;;;16.24;75.65
19795;BME280;10057;59.402;17.866;2022-07-23T02:33:46;100877.97;;;16.26;75.72
19795;BME280;10057;59.402;17.866;2022-07-23T02:36:13;100872.53;;;16.27;75.53
19795;BME280;10057;59.402;17.866;2022-07-23T02:38:40;100876.13;;;16.26;75.11
19795;BME280;10057;59.402;17.866;2022-07-23T02:41:07;100871.75;;;16.25;75.22
19795;BME280;10057;59.402;17.866;2022-07-23T02:43:33;100870.09;;;16.23;75.33
19795;BME280;10057;59.402;17.866;2022-07-23T02:46:00;100871.94;;;16.22;75.38
19795;BME280;10057;59.402;17.866;2022-07-23T02:48:27;100873.56;;;16.25;75.11
19795;BME280;10057;59.402;17.866;2022-07-23T02:50:54;100876.91;;;16.28;74.96
19795;BME280;10057;59.402;17.866;2022-07-23T02:53:23;100879.59;;;16.28;74.74
19795;BME280;10057;59.402;17.866;2022-07-23T02:55:50;100885.91;;;16.27;74.82
19795;BME280;10057;59.402;17.866;2022-07-23T02:58:17;100887.69;;;16.27;74.77
19795;BME280;10057;59.402;17.866;2022-07-23T03:00:44;100891.50;;;16.23;74.59
19795;BME280;10057;59.402;17.866;2022-07-23T03:03:10;100892.56;;;16.20;74.77
19795;BME280;10057;59.402;17.866;2022-07-23T03:05:38;100893.34;;;16.22;74.76
19795;BME280;10057;59.402;17.866;2022-07-23T03:08:04;100890.47;;;16.25;74.82
19795;BME280;10057;59.402;17.866;2022-07-23T03:10:31;100899.19;;;16.29;74.61
19795;BME280;10057;59.402;17.866;2022-07-23T03:12:57;100900.72;;;16.33;74.48
19795;BME280;10057;59.402;17.866;2022-07-23T03:15:24;100913.16;;;16.34;74.37
19795;BME280;10057;59.402;17.866;2022-07-23T03:17:51;100904.19;;;16.35;74.34
19795;BME280;10057;59.402;17.866;2022-07-23T03:20:18;100909.38;;;16.38;74.32
19795;BME280;10057;59.402;17.866;2022-07-23T03:22:44;100906.69;;;16.38;74.25
19795;BME280;10057;59.402;17.866;2022-07-23T03:25:11;100906.03;;;16.34;74.16
19795;BME280;10057;59.402;17.866;2022-07-23T03:27:38;100909.44;;;16.37;74.38
19795;BME280;10057;59.402;17.866;2022-07-23T03:30:05;100906.69;;;16.38;74.21
19795;BME280;10057;59.402;17.866;2022-07-23T03:32:31;100913.94;;;16.36;74.13
19795;BME280;10057;59.402;17.866;2022-07-23T03:34:58;100908.78;;;16.33;74.32
19795;BME280;10057;59.402;17.866;2022-07-23T03:37:25;100913.16;;;16.34;74.23
19795;BME280;10057;59.402;17.866;2022-07-23T03:39:52;100903.34;;;16.34;74.48
19795;BME280;10057;59.402;17.866;2022-07-23T03:42:19;100904.19;;;16.35;74.25
19795;BME280;10057;59.402;17.866;2022-07-23T03:44:46;100902.28;;;16.37;74.44
19795;BME280;10057;59.402;17.866;2022-07-23T03:47:12;100898.66;;;16.38;74.24
19795;BME280;10057;59.402;17.866;2022-07-23T03:49:40;100887.09;;;16.38;74.38
19795;BME280;10057;59.402;17.866;2022-07-23T03:52:06;100885.09;;;16.41;74.31
19795;BME280;10057;59.402;17.866;2022-07-23T03:54:33;100887.78;;;16.41;74.00
19795;BME280;10057;59.402;17.866;2022-07-23T03:57:00;100893.13;;;16.41;74.25
19795;BME280;10057;59.402;17.866;2022-07-23T03:59:27;100899.25;;;16.43;74.01
19795;BME280;10057;59.402;17.866;2022-07-23T04:01:53;100905.56;;;16.42;74.20
19795;BME280;10057;59.402;17.866;2022-07-23T04:04:20;100904.69;;;16.42;74.13
19795;BME280;10057;59.402;17.866;2022-07-23T04:06:47;100905.56;;;16.42;74.24
19795;BME280;10057;59.402;17.866;2022-07-23T04:09:13;100912.63;;;16.43;74.31
19795;BME280;10057;59.402;17.866;2022-07-23T04:11:40;100908.13;;;16.44;74.32
19795;BME280;10057;59.402;17.866;2022-07-23T04:14:07;100902.59;;;16.47;74.30
19795;BME280;10057;59.402;17.866;2022-07-23T04:16:34;100911.13;;;16.53;74.44
19795;BME280;10057;59.402;17.866;2022-07-23T04:19:00;100904.75;;;16.56;74.11
19795;BME280;10057;59.402;17.866;2022-07-23T04:21:28;100906.38;;;16.58;74.07
19795;BME280;10057;59.402;17.866;2022-07-23T04:23:54;100901.88;;;16.59;74.11
19795;BME280;10057;59.402;17.866;2022-07-23T04:26:21;100905.59;;;16.56;73.87
19795;BME280;10057;59.402;17.866;2022-07-23T04:28:48;100911.13;;;16.53;74.07
19795;BME280;10057;59.402;17.866;2022-07-23T04:31:14;100918.41;;;16.51;74.14
19795;BME280;10057;59.402;17.866;2022-07-23T04:33:41;100926.63;;;16.48;74.11
19795;BME280;10057;59.402;17.866;2022-07-23T04:36:10;100918.78;;;16.45;74.00
19795;BME280;10057;59.402;17.866;2022-07-23T04:38:36;100916.94;;;16.46;74.23
19795;BME280;10057;59.402;17.866;2022-07-23T04:41:03;100910.72;;;16.45;74.14
19795;BME280;10057;59.402;17.866;2022-07-23T04:43:30;100915.72;;;16.51;74.19
19795;BME280;10057;59.402;17.866;2022-07-23T04:45:57;100915.44;;;16.56;73.83
19795;BME280;10057;59.402;17.866;2022-07-23T04:48:23;100912.59;;;16.59;73.68
19795;BME280;10057;59.402;17.866;2022-07-23T04:50:50;100914.03;;;16.65;73.72
19795;BME280;10057;59.402;17.866;2022-07-23T04:53:17;100915.66;;;16.67;73.57
19795;BME280;10057;59.402;17.866;2022-07-23T04:55:45;100905.91;;;16.66;73.65
19795;BME280;10057;59.402;17.866;2022-07-23T04:58:12;100910.22;;;16.69;73.58
19795;BME280;10057;59.402;17.866;2022-07-23T05:00:38;100912.63;;;16.73;73.43
19795;BME280;10057;59.402;17.866;2022-07-23T05:03:05;100910.75;;;16.75;73.29
19795;BME280;10057;59.402;17.866;2022-07-23T05:05:32;100915.72;;;16.81;73.19
19795;BME280;10057;59.402;17.866;2022-07-23T05:07:58;100907.31;;;16.88;73.04
19795;BME280;10057;59.402;17.866;2022-07-23T05:10:25;100917.00;;;16.90;72.97
19795;BME280;10057;59.402;17.866;2022-07-23T05:12:52;100927.72;;;16.90;72.67
19795;BME280;10057;59.402;17.866;2022-07-23T05:15:19;100925.09;;;16.89;72.89
19795;BME280;10057;59.402;17.866;2022-07-23T05:17:46;100926.00;;;16.89;72.92
19795;BME280;10057;59.402;17.866;2022-07-23T05:20:12;100922.25;;;16.92;72.75
19795;BME280;10057;59.402;17.866;2022-07-23T05:22:40;100923.03;;;16.94;72.69
19795;BME280;10057;59.402;17.866;2022-07-23T05:25:07;100915.84;;;16.94;72.55
19795;BME280;10057;59.402;17.866;2022-07-23T05:27:34;100930.97;;;16.95;72.71
19795;BME280;10057;59.402;17.866;2022-07-23T05:30:01;100920.25;;;16.95;72.38
19795;BME280;10057;59.402;17.866;2022-07-23T05:32:28;100930.09;;;16.95;72.63
19795;BME280;10057;59.402;17.866;2022-07-23T05:34:54;100923.81;;;16.96;72.42
19795;BME280;10057;59.402;17.866;2022-07-23T05:37:21;100919.50;;;16.93;72.23
19795;BME280;10057;59.402;17.866;2022-07-23T05:39:48;100924.84;;;16.79;72.35
19795;BME280;10057;59.402;17.866;2022-07-23T05:42:14;100922.66;;;16.70;72.56
19795;BME280;10057;59.402;17.866;2022-07-23T05:44:42;100927.06;;;16.71;72.85
19795;BME280;10057;59.402;17.866;2022-07-23T05:47:09;100938.13;;;16.65;72.72
19795;BME280;10057;59.402;17.866;2022-07-23T05:49:37;100927.88;;;16.57;72.83
19795;BME280;10057;59.402;17.866;2022-07-23T05:52:06;100924.16;;;16.59;72.97
19795;BME280;10057;59.402;17.866;2022-07-23T05:54:35;100928.84;;;16.56;72.55
19795;BME280;10057;59.402;17.866;2022-07-23T05:57:03;100934.28;;;16.54;72.84
19795;BME280;10057;59.402;17.866;2022-07-23T05:59:30;100935.66;;;16.62;72.94
19795;BME280;10057;59.402;17.866;2022-07-23T06:01:57;100929.72;;;16.71;72.68
19795;BME280;10057;59.402;17.866;2022-07-23T06:04:24;100927.31;;;16.82;72.66
19795;BME280;10057;59.402;17.866;2022-07-23T06:06:51;100924.94;;;16.92;72.41
19795;BME280;10057;59.402;17.866;2022-07-23T06:09:17;100922.84;;;16.97;72.26
19795;BME280;10057;59.402;17.866;2022-07-23T06:11:44;100935.00;;;17.02;72.06
19795;BME280;10057;59.402;17.866;2022-07-23T06:14:11;100930.22;;;17.08;72.10
19795;BME280;10057;59.402;17.866;2022-07-23T06:16:37;100923.63;;;17.13;72.19
19795;BME280;10057;59.402;17.866;2022-07-23T06:19:04;100916.09;;;17.20;71.93
19795;BME280;10057;59.402;17.866;2022-07-23T06:21:31;100917.41;;;17.27;71.71
19795;BME280;10057;59.402;17.866;2022-07-23T06:24:12;100911.88;;;17.30;71.56
19795;BME280;10057;59.402;17.866;2022-07-23T06:26:39;100915.09;;;17.35;71.62
19795;BME280;10057;59.402;17.866;2022-07-23T06:29:05;100912.78;;;17.43;71.65
19795;BME280;10057;59.402;17.866;2022-07-23T06:31:32;100909.84;;;17.48;71.17
19795;BME280;10057;59.402;17.866;2022-07-23T06:34:00;100909.53;;;17.52;71.07
19795;BME280;10057;59.402;17.866;2022-07-23T06:36:26;100903.31;;;17.52;70.91
19795;BME280;10057;59.402;17.866;2022-07-23T06:38:53;100902.66;;;17.48;70.88
19795;BME280;10057;59.402;17.866;2022-07-23T06:41:20;100905.16;;;17.51;70.78
19795;BME280;10057;59.402;17.866;2022-07-23T06:43:46;100906.66;;;17.56;70.87
19795;BME280;10057;59.402;17.866;2022-07-23T06:46:13;100899.19;;;17.61;70.88
19795;BME280;10057;59.402;17.866;2022-07-23T06:48:40;100904.16;;;17.67;70.74
19795;BME280;10057;59.402;17.866;2022-07-23T06:51:07;100898.41;;;17.73;70.50
19795;BME280;10057;59.402;17.866;2022-07-23T06:53:33;100904.25;;;17.80;70.40
19795;BME280;10057;59.402;17.866;2022-07-23T06:56:00;100896.88;;;17.83;70.14
19795;BME280;10057;59.402;17.866;2022-07-23T06:58:27;100903.75;;;17.87;69.98
19795;BME280;10057;59.402;17.866;2022-07-23T07:00:53;100905.28;;;17.91;69.79
19795;BME280;10057;59.402;17.866;2022-07-23T07:03:20;100912.19;;;17.95;69.66
19795;BME280;10057;59.402;17.866;2022-07-23T07:05:47;100918.28;;;17.97;69.61
19795;BME280;10057;59.402;17.866;2022-07-23T07:08:13;100921.63;;;18.01;69.26
19795;BME280;10057;59.402;17.866;2022-07-23T07:10:41;100921.44;;;18.04;69.22
19795;BME280;10057;59.402;17.866;2022-07-23T07:13:08;100918.47;;;18.09;69.24
19795;BME280;10057;59.402;17.866;2022-07-23T07:15:35;100917.31;;;18.13;68.90
19795;BME280;10057;59.402;17.866;2022-07-23T07:18:01;100917.00;;;18.17;68.79
19795;BME280;10057;59.402;17.866;2022-07-23T07:20:28;100916.91;;;18.19;68.78
19795;BME280;10057;59.402;17.866;2022-07-23T07:22:55;100918.63;;;18.20;68.67
19795;BME280;10057;59.402;17.866;2022-07-23T07:25:21;100924.00;;;18.20;68.40
19795;BME280;10057;59.402;17.866;2022-07-23T07:27:48;100929.44;;;18.18;68.46
19795;BME280;10057;59.402;17.866;2022-07-23T07:30:15;100935.91;;;18.16;68.45
19795;BME280;10057;59.402;17.866;2022-07-23T07:32:42;100936.09;;;18.13;68.34
19795;BME280;10057;59.402;17.866;2022-07-23T07:35:25;100928.25;;;18.10;68.40
19795;BME280;10057;59.402;17.866;2022-07-23T07:37:52;100938.00;;;18.11;68.51
19795;BME280;10057;59.402;17.866;2022-07-23T07:40:19;100936.38;;;18.08;68.49
19795;BME280;10057;59.402;17.866;2022-07-23T07:42:47;100935.25;;;17.98;68.35
19795;BME280;10057;59.402;17.866;2022-07-23T07:45:14;100938.16;;;17.95;68.68
19795;BME280;10057;59.402;17.866;2022-07-23T07:47:41;100936.22;;;17.97;68.72
19795;BME280;10057;59.402;17.866;2022-07-23T07:50:09;100938.59;;;18.02;68.88
19795;BME280;10057;59.402;17.866;2022-07-23T07:52:38;100939.38;;;18.04;68.64
19795;BME280;10057;59.402;17.866;2022-07-23T07:55:06;100941.09;;;18.05;68.62
19795;BME280;10057;59.402;17.866;2022-07-23T07:57:35;100944.34;;;18.10;68.73
19795;BME280;10057;59.402;17.866;2022-07-23T08:00:03;100944.91;;;18.15;68.41
19795;BME280;10057;59.402;17.866;2022-07-23T08:02:43;100941.06;;;18.19;68.38
19795;BME280;10057;59.402;17.866;2022-07-23T08:05:12;100950.47;;;18.12;68.24
19795;BME280;10057;59.402;17.866;2022-07-23T08:07:39;100951.53;;;18.09;68.12
19795;BME280;10057;59.402;17.866;2022-07-23T08:10:07;100945.53;;;18.06;68.38
19795;BME280;10057;59.402;17.866;2022-07-23T08:12:42;100947.22;;;18.07;68.25
19795;BME280;10057;59.402;17.866;2022-07-23T08:15:12;100943.38;;;18.11;68.39
19795;BME280;10057;59.402;17.866;2022-07-23T08:17:41;100949.59;;;18.11;68.32
19795;BME280;10057;59.402;17.866;2022-07-23T08:20:09;100961.00;;;18.15;68.30
19795;BME280;10057;59.402;17.866;2022-07-23T08:25:15;100961.13;;;18.13;68.14
19795;BME280;10057;59.402;17.866;2022-07-23T08:27:42;100976.09;;;18.03;67.96
19795;BME280;10057;59.402;17.866;2022-07-23T08:30:09;100974.47;;;18.00;68.30
19795;BME280;10057;59.402;17.866;2022-07-23T08:32:54;100967.94;;;18.05;68.56
19795;BME280;10057;59.402;17.866;2022-07-23T08:35:26;100972.91;;;18.11;68.48
19795;BME280;10057;59.402;17.866;2022-07-23T08:37:54;100971.66;;;18.16;68.32
19795;BME280;10057;59.402;17.866;2022-07-23T08:40:21;100973.06;;;18.22;68.28
19795;BME280;10057;59.402;17.866;2022-07-23T08:42:49;100966.44;;;18.28;68.18
19795;BME280;10057;59.402;17.866;2022-07-23T08:45:18;100963.56;;;18.31;68.01
19795;BME280;10057;59.402;17.866;2022-07-23T08:47:57;100966.13;;;18.32;67.87
19795;BME280;10057;59.402;17.866;2022-07-23T08:50:32;100980.44;;;18.33;67.95
19795;BME280;10057;59.402;17.866;2022-07-23T08:53:05;100971.22;;;18.37;67.91
19795;BME280;10057;59.402;17.866;2022-07-23T08:55:33;100984.31;;;18.41;67.69
19795;BME280;10057;59.402;17.866;2022-07-23T08:58:00;100995.63;;;18.46;67.54
19795;BME280;10057;59.402;17.866;2022-07-23T09:00:28;100993.91;;;18.45;67.60
19795;BME280;10057;59.402;17.866;2022-07-23T09:02:55;101001.22;;;18.43;67.48
19795;BME280;10057;59.402;17.866;2022-07-23T09:05:21;101001.50;;;18.39;67.54
19795;BME280;10057;59.402;17.866;2022-07-23T09:08:13;100992.69;;;18.37;67.67
19795;BME280;10057;59.402;17.866;2022-07-23T09:10:52;100993.88;;;18.33;67.56
19795;BME280;10057;59.402;17.866;2022-07-23T09:13:40;100989.56;;;18.30;67.74
19795;BME280;10057;59.402;17.866;2022-07-23T09:16:23;100992.25;;;18.30;67.90
19795;BME280;10057;59.402;17.866;2022-07-23T09:19:02;101002.13;;;18.30;67.85
19795;BME280;10057;59.402;17.866;2022-07-23T09:21:35;100997.59;;;18.30;67.79
19795;BME280;10057;59.402;17.866;2022-07-23T09:24:06;101001.34;;;18.28;67.86
19795;BME280;10057;59.402;17.866;2022-07-23T09:26:45;101001.06;;;18.18;67.88
19795;BME280;10057;59.402;17.866;2022-07-23T09:29:24;101006.09;;;18.10;68.13
19795;BME280;10057;59.402;17.866;2022-07-23T09:31:54;100999.19;;;18.06;68.28
19795;BME280;10057;59.402;17.866;2022-07-23T09:36:52;101003.91;;;18.02;68.43
19795;BME280;10057;59.402;17.866;2022-07-23T09:39:31;100996.72;;;18.03;68.41
19795;BME280;10057;59.402;17.866;2022-07-23T09:42:15;100999.41;;;18.03;68.52
19795;BME280;10057;59.402;17.866;2022-07-23T09:44:44;101003.72;;;18.05;68.80
19795;BME280;10057;59.402;17.866;2022-07-23T09:47:11;101013.38;;;18.08;68.58
19795;BME280;10057;59.402;17.866;2022-07-23T09:49:38;101013.38;;;18.08;68.64
19795;BME280;10057;59.402;17.866;2022-07-23T09:52:08;101016.06;;;18.08;68.61
19795;BME280;10057;59.402;17.866;2022-07-23T09:54:38;101022.28;;;18.08;68.72
19795;BME280;10057;59.402;17.866;2022-07-23T09:57:11;101015.88;;;18.11;68.57
19795;BME280;10057;59.402;17.866;2022-07-23T09:59:44;101020.00;;;18.16;68.61
19795;BME280;10057;59.402;17.866;2022-07-23T10:02:13;101017.97;;;18.20;68.74
19795;BME280;10057;59.402;17.866;2022-07-23T10:04:42;101012.41;;;18.23;68.43
19795;BME280;10057;59.402;17.866;2022-07-23T10:07:10;101019.28;;;18.27;68.52
19795;BME280;10057;59.402;17.866;2022-07-23T10:09:39;101012.00;;;18.29;68.35
19795;BME280;10057;59.402;17.866;2022-07-23T10:12:12;101014.03;;;18.26;68.36
19795;BME280;10057;59.402;17.866;2022-07-23T10:14:48;101019.47;;;18.24;68.22
19795;BME280;10057;59.402;17.866;2022-07-23T10:17:15;101026.56;;;18.25;68.21
19795;BME280;10057;59.402;17.866;2022-07-23T10:19:43;101021.19;;;18.25;68.13
19795;BME280;10057;59.402;17.866;2022-07-23T10:22:22;101031.75;;;18.28;68.21
19795;BME280;10057;59.402;17.866;2022-07-23T10:25:00;101031.75;;;18.28;68.14
19795;BME280;10057;59.402;17.866;2022-07-23T10:30:43;101026.38;;;18.28;67.99
19795;BME280;10057;59.402;17.866;2022-07-23T10:33:20;101031.00;;;18.26;68.04
19795;BME280;10057;59.402;17.866;2022-07-23T10:35:56;101026.56;;;18.25;67.94
19795;BME280;10057;59.402;17.866;2022-07-23T10:38:36;101031.38;;;18.20;68.13
19795;BME280;10057;59.402;17.866;2022-07-23T10:41:04;101038.59;;;18.19;68.37
19795;BME280;10057;59.402;17.866;2022-07-23T10:43:32;101036.94;;;18.17;68.12
19795;BME280;10057;59.402;17.866;2022-07-23T10:46:21;101040.13;;;18.09;68.55
19795;BME280;10057;59.402;17.866;2022-07-23T10:54:56;101034.47;;;18.14;68.53
19795;BME280;10057;59.402;17.866;2022-07-23T10:57:49;101036.28;;;18.13;68.17
19795;BME280;10057;59.402;17.866;2022-07-23T11:00:20;101035.63;;;18.10;67.94
19795;BME280;10057;59.402;17.866;2022-07-23T11:02:53;101031.22;;;18.09;68.34
19795;BME280;10057;59.402;17.866;2022-07-23T11:05:25;101029.47;;;18.08;68.35
19795;BME280;10057;59.402;17.866;2022-07-23T11:10:39;101031.50;;;18.04;68.35
19795;BME280;10057;59.402;17.866;2022-07-23T11:32:03;101056.44;;;17.92;68.50
19795;BME280;10057;59.402;17.866;2022-07-23T11:37:09;101049.16;;;17.94;68.66
19795;BME280;10057;59.402;17.866;2022-07-23T11:39:38;101048.09;;;17.96;68.74
19795;BME280;10057;59.402;17.866;2022-07-23T11:42:07;101050.66;;;17.98;68.59
19795;BME280;10057;59.402;17.866;2022-07-23T11:44:36;101049.72;;;17.99;68.42
19795;BME280;10057;59.402;17.866;2022-07-23T11:47:05;101043.41;;;18.00;68.51
19795;BME280;10057;59.402;17.866;2022-07-23T11:49:33;101055.78;;;18.03;68.46
19795;BME280;10057;59.402;17.866;2022-07-23T11:52:12;101043.97;;;18.05;68.26
19795;BME280;10057;59.402;17.866;2022-07-23T11:57:16;101040.31;;;18.06;68.29
19795;BME280;10057;59.402;17.866;2022-07-23T11:59:50;101041.31;;;18.05;68.17
19795;BME280;10057;59.402;17.866;2022-07-23T12:02:20;101041.06;;;18.08;68.02
19795;BME280;10057;59.402;17.866;2022-07-23T12:04:49;101038.50;;;18.07;67.87
19795;BME280;10057;59.402;17.866;2022-07-23T12:07:35;101036.78;;;18.06;67.81
19795;BME280;10057;59.402;17.866;2022-07-23T12:10:05;101037.66;;;18.06;67.72
19795;BME280;10057;59.402;17.866;2022-07-23T12:12:37;101030.25;;;18.10;67.92
19795;BME280;10057;59.402;17.866;2022-07-23T12:15:05;101035.44;;;18.13;67.71
19795;BME280;10057;59.402;17.866;2022-07-23T12:17:34;101033.50;;;18.15;67.63
19795;BME280;10057;59.402;17.866;2022-07-23T12:20:05;101035.78;;;18.21;67.66
19795;BME280;10057;59.402;17.866;2022-07-23T12:25:07;101029.63;;;18.33;67.41
19795;BME280;10057;59.402;17.866;2022-07-23T12:27:34;101042.94;;;18.35;67.16
19795;BME280;10057;59.402;17.866;2022-07-23T12:30:15;101046.41;;;18.37;67.34
19795;BME280;10057;59.402;17.866;2022-07-23T12:32:44;101038.25;;;18.38;66.99
19795;BME280;10057;59.402;17.866;2022-07-23T12:35:11;101045.44;;;18.38;66.85
19795;BME280;10057;59.402;17.866;2022-07-23T12:37:40;101044.78;;;18.34;67.01
19795;BME280;10057;59.402;17.866;2022-07-23T12:43:20;101040.66;;;18.29;66.88
19795;BME280;10057;59.402;17.866;2022-07-23T12:48:28;101039.59;;;18.31;66.93
19795;BME280;10057;59.402;17.866;2022-07-23T12:51:04;101043.81;;;18.35;66.98
19795;BME280;10057;59.402;17.866;2022-07-23T12:53:37;101043.41;;;18.41;66.77
19795;BME280;10057;59.402;17.866;2022-07-23T13:01:26;101046.69;;;18.46;66.53
19795;BME280;10057;59.402;17.866;2022-07-23T13:03:59;101050.31;;;18.45;66.40
19795;BME280;10057;59.402;17.866;2022-07-23T13:06:33;101056.75;;;18.43;66.35
19795;BME280;10057;59.402;17.866;2022-07-23T13:09:01;101056.66;;;18.44;66.31
19795;BME280;10057;59.402;17.866;2022-07-23T13:11:29;101055.78;;;18.44;66.21
19795;BME280;10057;59.402;17.866;2022-07-23T13:13:56;101052.25;;;18.43;66.21
19795;BME280;10057;59.402;17.866;2022-07-23T13:16:23;101058.47;;;18.44;66.18
19795;BME280;10057;59.402;17.866;2022-07-23T13:18:53;101063.66;;;18.47;66.23
19795;BME280;10057;59.402;17.866;2022-07-23T13:21:20;101062.78;;;18.46;66.19
19795;BME280;10057;59.402;17.866;2022-07-23T13:23:47;101066.22;;;18.48;66.18
19795;BME280;10057;59.402;17.866;2022-07-23T13:26:14;101062.38;;;18.53;66.23
19795;BME280;10057;59.402;17.866;2022-07-23T13:28:41;101062.16;;;18.56;65.92
19795;BME280;10057;59.402;17.866;2022-07-23T13:31:08;101058.53;;;18.57;65.81
19795;BME280;10057;59.402;17.866;2022-07-23T13:33:35;101076.38;;;18.58;65.65
19795;BME280;10057;59.402;17.866;2022-07-23T13:36:02;101067.47;;;18.57;65.67
19795;BME280;10057;59.402;17.866;2022-07-23T13:38:29;101070.03;;;18.59;65.55
19795;BME280;10057;59.402;17.866;2022-07-23T13:40:56;101068.22;;;18.59;65.53
19795;BME280;10057;59.402;17.866;2022-07-23T13:43:25;101075.31;;;18.60;65.58